createdAt,value
2023-03-22T00:00:00.618Z,52.77
2023-03-22T00:05:04.921Z,47.97
2023-03-22T00:10:08.387Z,49.20
2023-03-22T00:15:12.009Z,45.73
2023-03-22T00:20:19.620Z,48.90
2023-03-22T00:25:23.094Z,48.40
2023-03-22T00:30:25.760Z,49.88
2023-03-22T00:35:29.592Z,47.13
2023-03-22T00:40:32.318Z,46.08
2023-03-22T00:45:36.241Z,47.15
2023-03-22T00:50:41.695Z,49.67
2023-03-22T00:55:44.194Z,50.53
2023-03-22T01:00:46.769Z,47.65
2023-03-22T01:05:55.235Z,48.97
2023-03-22T01:10:57.729Z,46.70
2023-03-22T01:16:00.252Z,46.55
2023-03-22T01:21:04.155Z,46.55
2023-03-22T01:26:07.198Z,44.83
2023-03-22T01:31:09.716Z,41.35
2023-03-22T01:36:13.644Z,42.50
2023-03-22T01:41:17.126Z,41.47
2023-03-22T01:46:19.617Z,39.70
2023-03-22T01:51:25.878Z,37.47
2023-03-22T01:56:32.274Z,38.63
2023-03-22T02:01:36.231Z,39.10
2023-03-22T02:06:40.312Z,39.63
2023-03-22T02:11:45.037Z,38.83
2023-03-22T02:16:57.939Z,41.03
2023-03-22T02:22:30.745Z,42.22
2023-03-22T02:27:47.288Z,38.50
2023-03-22T02:33:06.593Z,42.27
2023-03-22T02:38:59.709Z,39.53
2023-03-22T02:44:09.923Z,40.90
2023-03-22T02:49:21.020Z,41.53
2023-03-22T02:54:29.556Z,40.17
2023-03-22T02:59:37.436Z,39.05
2023-03-22T03:04:45.598Z,38.50
2023-03-22T03:09:51.216Z,37.20
2023-03-22T03:14:53.766Z,37.50
2023-03-22T03:20:12.124Z,38.05
2023-03-22T03:25:30.211Z,35.47
2023-03-22T03:30:40.661Z,37.00
2023-03-22T03:35:50.720Z,40.90
2023-03-22T03:41:00.037Z,39.57
2023-03-22T03:46:02.897Z,39.40
2023-03-22T03:51:05.679Z,43.13
2023-03-22T03:56:10.014Z,42.53
2023-03-22T04:01:12.653Z,39.87
2023-03-22T04:06:15.138Z,38.92
2023-03-22T04:11:18.975Z,40.65
2023-03-22T04:16:24.931Z,42.57
2023-03-22T04:21:27.534Z,40.47
2023-03-22T04:26:31.578Z,43.47
2023-03-22T04:31:35.672Z,44.00
2023-03-22T04:36:39.860Z,40.03
2023-03-22T04:41:43.717Z,42.28
2023-03-22T04:46:46.270Z,40.75
2023-03-22T04:51:51.814Z,36.17
2023-03-22T04:56:55.716Z,37.92
2023-03-22T05:01:58.293Z,33.45
2023-03-22T05:07:00.929Z,35.00
2023-03-22T05:12:04.820Z,39.45
2023-03-22T05:17:07.301Z,38.05
2023-03-22T05:22:11.895Z,34.30
2023-03-22T05:27:15.707Z,34.13
2023-03-22T05:32:18.313Z,35.83
2023-03-22T05:37:21.061Z,36.67
2023-03-22T05:42:24.858Z,35.63
2023-03-22T05:47:27.331Z,33.47
2023-03-22T05:52:29.846Z,33.72
2023-03-22T05:57:33.906Z,33.77
2023-03-22T06:02:36.779Z,36.63
2023-03-22T06:07:39.835Z,36.47
2023-03-22T06:12:43.696Z,35.20
2023-03-22T06:17:46.428Z,36.90
2023-03-22T06:22:48.913Z,29.50
2023-03-22T06:27:52.749Z,31.30
2023-03-22T06:32:55.338Z,30.37
2023-03-22T06:37:57.957Z,28.83
2023-03-22T06:43:05.150Z,27.77
2023-03-22T06:48:08.944Z,28.87
2023-03-22T06:53:11.469Z,32.10
2023-03-22T06:58:15.273Z,28.65
2023-03-22T07:03:17.726Z,28.70
2023-03-22T07:08:20.270Z,27.77
2023-03-22T07:13:24.255Z,29.35
2023-03-22T07:18:27.571Z,27.90
2023-03-22T07:23:30.121Z,25.47
2023-03-22T07:28:34.311Z,28.17
2023-03-22T07:33:36.834Z,24.92
2023-03-22T07:38:39.358Z,28.60
2023-03-22T07:43:54.020Z,24.88
2023-03-22T07:48:57.842Z,22.95
2023-03-22T07:54:00.364Z,23.77
2023-03-22T07:59:04.309Z,26.47
2023-03-22T08:04:06.860Z,23.38
2023-03-22T08:09:09.487Z,22.30
2023-03-22T08:14:13.280Z,18.50
2023-03-22T08:19:15.901Z,15.88
2023-03-22T08:24:18.377Z,17.10
2023-03-22T08:29:23.566Z,19.43
2023-03-22T08:34:26.076Z,16.95
2023-03-22T08:39:28.569Z,18.25
2023-03-22T08:44:32.833Z,16.77
2023-03-22T08:49:35.689Z,19.90
2023-03-22T08:54:38.636Z,15.77
2023-03-22T08:59:42.491Z,15.52
2023-03-22T09:04:45.024Z,15.43
2023-03-22T09:09:47.680Z,16.58
2023-03-22T09:14:51.756Z,18.05
2023-03-22T09:20:06.024Z,16.80
2023-03-22T09:25:13.831Z,18.63
2023-03-22T09:30:17.664Z,17.33
2023-03-22T09:35:20.221Z,18.23
2023-03-22T09:40:26.734Z,18.37
2023-03-22T09:45:38.376Z,14.50
2023-03-22T09:50:46.460Z,19.33
2023-03-22T09:55:55.892Z,16.20
2023-03-22T10:01:03.401Z,19.70
2023-03-22T10:06:09.896Z,22.20
2023-03-22T10:11:22.288Z,16.03
2023-03-22T10:16:29.613Z,18.35
2023-03-22T10:21:33.889Z,21.17
2023-03-22T10:26:40.485Z,16.97
2023-03-22T10:31:45.933Z,18.60
2023-03-22T10:36:51.832Z,20.17
2023-03-22T10:41:57.970Z,18.23
2023-03-22T10:47:08.026Z,16.57
2023-03-22T10:52:24.832Z,16.88
2023-03-22T10:57:27.403Z,16.17
2023-03-22T11:02:32.807Z,16.57
2023-03-22T11:07:38.070Z,14.07
2023-03-22T11:12:43.547Z,13.48
2023-03-22T11:17:47.618Z,13.77
2023-03-22T11:22:52.069Z,15.13
2023-03-22T11:27:56.794Z,13.63
2023-03-22T11:33:17.558Z,15.00
2023-03-22T11:38:29.451Z,13.80
2023-03-22T11:43:38.567Z,12.70
2023-03-22T11:48:43.488Z,13.63
2023-03-22T11:53:48.689Z,12.57
2023-03-22T11:58:59.922Z,13.38
2023-03-22T12:04:09.654Z,13.40
2023-03-22T12:09:23.127Z,13.20
2023-03-22T12:14:29.592Z,16.53
2023-03-22T12:19:46.277Z,13.45
2023-03-22T12:24:48.951Z,13.52
2023-03-22T12:29:57.558Z,15.50
2023-03-22T12:35:18.084Z,15.32
2023-03-22T12:40:25.119Z,12.45
2023-03-22T12:45:30.102Z,12.20
2023-03-22T12:50:38.052Z,12.35
2023-03-22T12:55:41.975Z,12.25
2023-03-22T13:00:49.636Z,11.73
2023-03-22T13:06:03.046Z,11.73
2023-03-22T13:11:06.284Z,11.15
2023-03-22T13:16:19.300Z,12.48
2023-03-22T13:21:24.539Z,9.77
2023-03-22T13:26:34.494Z,11.70
2023-03-22T13:31:41.715Z,10.18
2023-03-22T13:36:53.695Z,12.00
2023-03-22T13:42:06.983Z,10.45
2023-03-22T13:47:30.587Z,8.48
2023-03-22T13:52:41.242Z,12.87
2023-03-22T13:57:50.816Z,9.67
2023-03-22T14:02:55.017Z,8.68
2023-03-22T14:08:01.041Z,10.15
2023-03-22T14:13:06.785Z,9.13
2023-03-22T14:18:15.764Z,8.20
